createdAt,value
2019-02-22T00:00:09.085Z,99.90
2019-02-22T00:02:36.190Z,99.40
2019-02-22T00:05:03.917Z,99.90
2019-02-22T00:07:30.849Z,99.90
2019-02-22T00:09:57.899Z,99.90
2019-02-22T00:12:24.901Z,99.90
2019-02-22T00:14:51.856Z,99.90
2019-02-22T00:17:20.238Z,99.90
2019-02-22T00:19:48.610Z,99.90
2019-02-22T00:22:15.794Z,99.90
2019-02-22T00:24:42.873Z,99.90
2019-02-22T00:27:09.812Z,99.90
2019-02-22T00:29:36.971Z,99.90
2019-02-22T00:32:03.984Z,99.90
2019-02-22T00:34:31.174Z,99.90
2019-02-22T00:36:58.252Z,99.90
2019-02-22T00:39:25.306Z,99.90
2019-02-22T00:41:52.323Z,99.90
2019-02-22T00:44:19.299Z,99.90
2019-02-22T00:46:46.271Z,99.90
2019-02-22T00:49:13.223Z,99.90
2019-02-22T00:51:40.252Z,99.90
2019-02-22T00:54:07.298Z,99.90
2019-02-22T00:56:34.399Z,99.90
2019-02-22T00:59:01.371Z,99.90
2019-02-22T01:01:28.404Z,99.90
2019-02-22T01:03:55.377Z,99.90
2019-02-22T01:06:22.387Z,99.90
2019-02-22T01:08:49.474Z,99.90
2019-02-22T01:11:16.413Z,99.90
2019-02-22T01:13:43.424Z,99.90
2019-02-22T01:16:10.350Z,99.90
2019-02-22T01:18:37.775Z,99.90
2019-02-22T01:21:04.771Z,99.90
2019-02-22T01:23:31.778Z,99.90
2019-02-22T01:25:58.977Z,99.90
2019-02-22T01:28:25.913Z,99.90
2019-02-22T01:30:52.964Z,99.90
2019-02-22T01:33:19.919Z,99.90
2019-02-22T01:35:46.986Z,99.90
2019-02-22T01:38:13.964Z,99.90
2019-02-22T01:40:44.063Z,99.90
2019-02-22T01:43:09.908Z,99.90
2019-02-22T01:45:36.917Z,99.90
2019-02-22T01:48:03.947Z,99.90
2019-02-22T01:50:31.114Z,99.90
2019-02-22T01:52:58.119Z,99.90
2019-02-22T01:55:25.207Z,99.90
2019-02-22T01:57:52.284Z,99.90
2019-02-22T02:00:19.312Z,99.90
2019-02-22T02:02:46.365Z,99.90
2019-02-22T02:05:13.318Z,99.90
2019-02-22T02:07:40.411Z,99.90
2019-02-22T02:10:07.495Z,99.90
2019-02-22T02:12:34.412Z,99.90
2019-02-22T02:15:01.367Z,99.90
2019-02-22T02:17:28.354Z,99.90
2019-02-22T02:19:55.396Z,99.90
2019-02-22T02:22:22.428Z,99.90
2019-02-22T02:24:49.521Z,99.90
2019-02-22T02:27:16.525Z,99.90
2019-02-22T02:29:43.444Z,99.90
2019-02-22T02:32:10.415Z,99.90
2019-02-22T02:34:37.465Z,99.90
2019-02-22T02:37:04.518Z,99.90
2019-02-22T02:39:31.575Z,99.90
2019-02-22T02:41:58.710Z,99.90
2019-02-22T02:44:25.622Z,99.90
2019-02-22T02:46:52.632Z,99.90
2019-02-22T02:49:19.553Z,99.90
2019-02-22T02:51:46.511Z,99.90
2019-02-22T02:54:13.526Z,99.90
2019-02-22T02:56:40.421Z,99.90
2019-02-22T02:59:07.424Z,99.90
2019-02-22T03:01:34.474Z,99.90
2019-02-22T03:04:01.431Z,99.90
2019-02-22T03:06:30.321Z,99.90
2019-02-22T03:08:57.391Z,99.90
2019-02-22T03:11:24.428Z,99.90
2019-02-22T03:13:51.415Z,99.90
2019-02-22T03:16:18.470Z,99.90
2019-02-22T03:18:45.415Z,99.90
2019-02-22T03:21:12.617Z,99.90
2019-02-22T03:23:39.674Z,99.90
2019-02-22T03:26:10.769Z,99.90
2019-02-22T03:28:37.724Z,99.90
2019-02-22T03:31:04.718Z,99.90
2019-02-22T03:33:31.723Z,99.90
2019-02-22T03:35:58.724Z,99.90
2019-02-22T03:38:25.818Z,99.90
2019-02-22T03:40:52.840Z,99.90
2019-02-22T03:43:19.866Z,99.90
2019-02-22T03:45:46.944Z,99.90
2019-02-22T03:48:13.995Z,99.90
2019-02-22T03:50:41.062Z,99.90
2019-02-22T03:53:13.120Z,99.90
2019-02-22T03:55:40.045Z,99.90
2019-02-22T03:58:07.103Z,99.90
2019-02-22T04:00:34.145Z,99.90
2019-02-22T04:03:01.211Z,99.90
2019-02-22T04:05:28.209Z,99.90
2019-02-22T04:07:55.124Z,99.90
2019-02-22T04:10:22.065Z,99.90
2019-02-22T04:12:49.371Z,99.90
2019-02-22T04:15:16.455Z,99.90
2019-02-22T04:17:43.350Z,99.90
2019-02-22T04:20:10.459Z,99.90
2019-02-22T04:22:37.523Z,99.90
2019-02-22T04:25:04.599Z,99.90
2019-02-22T04:27:31.670Z,99.90
2019-02-22T04:29:58.713Z,99.90
2019-02-22T04:32:25.617Z,99.90
2019-02-22T04:34:52.575Z,99.90
2019-02-22T04:37:19.459Z,99.90
2019-02-22T04:39:46.486Z,99.90
2019-02-22T04:42:13.528Z,99.90
2019-02-22T04:44:40.471Z,99.90
2019-02-22T04:47:07.418Z,99.90
2019-02-22T04:49:34.313Z,99.90
2019-02-22T04:52:01.589Z,99.90
2019-02-22T04:54:28.522Z,99.90
2019-02-22T04:56:55.472Z,99.90
2019-02-22T04:59:22.494Z,99.90
2019-02-22T05:01:49.501Z,99.90
2019-02-22T05:04:16.409Z,99.90
2019-02-22T05:06:43.444Z,99.90
2019-02-22T05:09:10.430Z,99.90
2019-02-22T05:11:37.385Z,99.90
2019-02-22T05:14:04.312Z,99.90
2019-02-22T05:16:31.408Z,99.90
2019-02-22T05:18:58.399Z,99.90
2019-02-22T05:21:25.332Z,99.90
2019-02-22T05:23:52.321Z,99.90
2019-02-22T05:26:19.313Z,99.90
2019-02-22T05:28:46.316Z,99.90
2019-02-22T05:31:13.321Z,99.90
2019-02-22T05:33:42.163Z,99.90
2019-02-22T05:36:09.076Z,99.90
2019-02-22T05:38:36.185Z,99.90
2019-02-22T05:41:03.226Z,99.90
2019-02-22T05:43:30.228Z,99.90
2019-02-22T05:45:57.227Z,99.90
2019-02-22T05:48:25.452Z,99.90
2019-02-22T05:50:52.748Z,99.90
2019-02-22T05:53:19.888Z,99.90
2019-02-22T05:55:46.947Z,99.90
2019-02-22T05:58:13.994Z,99.90
2019-02-22T06:00:41.045Z,99.90
2019-02-22T06:03:08.072Z,99.90
2019-02-22T06:05:35.134Z,99.90
2019-02-22T06:08:02.077Z,99.90
2019-02-22T06:10:29.047Z,99.90
2019-02-22T06:12:56.126Z,99.90
2019-02-22T06:15:23.106Z,99.90
2019-02-22T06:17:50.146Z,99.90
2019-02-22T06:20:17.048Z,99.90
2019-02-22T06:22:43.992Z,99.90
2019-02-22T06:25:10.953Z,99.90
2019-02-22T06:27:37.988Z,99.90
2019-02-22T06:30:06.394Z,99.90
2019-02-22T06:32:33.370Z,99.90
2019-02-22T06:35:00.576Z,99.90
2019-02-22T06:37:27.736Z,99.90
2019-02-22T06:39:54.738Z,99.90
2019-02-22T06:42:21.811Z,99.90
2019-02-22T06:44:51.791Z,99.90
2019-02-22T06:47:19.317Z,99.90
2019-02-22T06:49:46.613Z,99.90
2019-02-22T06:52:13.698Z,99.90
2019-02-22T06:54:40.726Z,99.90
2019-02-22T06:57:07.664Z,99.90
2019-02-22T06:59:34.654Z,99.90
2019-02-22T07:02:01.748Z,99.90
2019-02-22T07:04:29.756Z,99.90
2019-02-22T07:06:56.734Z,99.90
2019-02-22T07:09:23.834Z,99.90
2019-02-22T07:11:53.251Z,99.90
2019-02-22T07:14:20.277Z,99.90
2019-02-22T07:16:50.539Z,99.90
2019-02-22T07:19:20.338Z,99.90
2019-02-22T07:21:52.810Z,99.90
2019-02-22T07:24:16.171Z,99.90
2019-02-22T07:26:43.213Z,99.90
2019-02-22T07:29:10.533Z,99.90
2019-02-22T07:31:37.602Z,99.90
2019-02-22T07:34:05.709Z,99.90
2019-02-22T07:36:32.778Z,99.70
2019-02-22T07:38:59.707Z,99.40
2019-02-22T07:41:26.839Z,99.40
2019-02-22T07:43:53.805Z,99.20
2019-02-22T07:46:20.800Z,99.30
2019-02-22T07:48:47.718Z,99.50
2019-02-22T07:51:15.140Z,99.60
2019-02-22T07:53:42.086Z,99.30
2019-02-22T07:56:09.037Z,99.00
2019-02-22T07:58:36.153Z,98.90
2019-02-22T08:01:03.332Z,98.60
2019-02-22T08:03:30.397Z,98.10
2019-02-22T08:05:57.334Z,97.60
2019-02-22T08:08:24.396Z,97.10
2019-02-22T08:10:51.635Z,97.00
2019-02-22T08:13:19.985Z,97.00
2019-02-22T08:15:47.467Z,96.80
2019-02-22T08:18:14.525Z,96.30
2019-02-22T08:20:41.470Z,96.20
2019-02-22T08:23:08.546Z,96.20
2019-02-22T08:25:35.607Z,96.40
2019-02-22T08:28:02.620Z,96.00
2019-02-22T08:30:29.544Z,95.60
2019-02-22T08:32:56.447Z,94.70
2019-02-22T08:35:25.802Z,93.90
2019-02-22T08:38:11.707Z,93.70
2019-02-22T08:40:38.762Z,93.40
2019-02-22T08:43:05.768Z,93.20
2019-02-22T08:45:32.661Z,93.50
2019-02-22T08:47:59.632Z,93.30
2019-02-22T08:50:26.546Z,92.90
2019-02-22T08:52:54.548Z,92.70
2019-02-22T08:55:21.525Z,92.30
2019-02-22T08:57:48.746Z,92.30
2019-02-22T09:00:15.884Z,92.00
2019-02-22T09:02:42.944Z,91.60
2019-02-22T09:05:09.868Z,91.50
2019-02-22T09:07:36.910Z,91.50
2019-02-22T09:10:04.291Z,91.60
2019-02-22T09:12:31.341Z,91.80
2019-02-22T09:14:58.550Z,91.90
2019-02-22T09:17:25.580Z,91.90
2019-02-22T09:19:52.503Z,91.90
2019-02-22T09:22:22.915Z,91.80
2019-02-22T09:24:48.864Z,91.40
2019-02-22T09:27:16.802Z,90.50
2019-02-22T09:29:44.197Z,90.70
2019-02-22T09:32:11.663Z,90.20
2019-02-22T09:34:39.312Z,88.80
2019-02-22T09:37:06.351Z,87.20
2019-02-22T09:39:34.443Z,87.20
2019-02-22T09:42:01.821Z,86.90
2019-02-22T09:44:30.078Z,87.10
2019-02-22T09:46:57.114Z,87.40
2019-02-22T09:49:24.156Z,86.20
2019-02-22T09:51:51.298Z,86.20
2019-02-22T09:54:18.205Z,86.30
2019-02-22T09:56:45.135Z,85.10
2019-02-22T09:59:12.285Z,84.20
2019-02-22T10:01:39.428Z,84.10
2019-02-22T10:04:06.555Z,84.40
2019-02-22T10:06:33.727Z,84.60
2019-02-22T10:09:00.958Z,84.10
2019-02-22T10:11:28.068Z,84.30
2019-02-22T10:14:06.334Z,84.60
2019-02-22T10:16:27.532Z,84.00
2019-02-22T10:18:54.515Z,83.20
2019-02-22T10:21:21.675Z,82.80
2019-02-22T10:23:48.725Z,82.50
2019-02-22T10:26:15.801Z,82.60
2019-02-22T10:28:42.829Z,83.20
2019-02-22T10:31:09.876Z,83.70
2019-02-22T10:33:37.100Z,82.00
2019-02-22T10:36:04.140Z,82.00
2019-02-22T10:38:33.860Z,81.40
2019-02-22T10:40:59.978Z,78.50
2019-02-22T10:43:27.035Z,77.00
2019-02-22T10:45:53.988Z,73.10
2019-02-22T10:48:21.024Z,72.00
2019-02-22T10:50:48.247Z,71.50
2019-02-22T10:53:15.473Z,71.80
2019-02-22T10:55:42.478Z,72.10
2019-02-22T10:58:09.595Z,72.60
2019-02-22T11:00:36.749Z,71.70
2019-02-22T11:03:03.778Z,71.30
2019-02-22T11:05:30.806Z,70.70
2019-02-22T11:07:57.824Z,70.80
2019-02-22T11:10:24.975Z,71.10
2019-02-22T11:12:52.061Z,71.50
2019-02-22T11:15:19.008Z,71.60
2019-02-22T11:17:45.939Z,72.40
2019-02-22T11:20:12.970Z,72.60
2019-02-22T11:22:39.973Z,73.10
2019-02-22T11:25:09.023Z,73.00
2019-02-22T11:27:36.053Z,72.80
2019-02-22T11:30:03.191Z,73.10
2019-02-22T11:32:30.198Z,73.10
2019-02-22T11:34:57.186Z,73.20
2019-02-22T11:37:24.339Z,74.10
2019-02-22T11:39:51.290Z,72.90
2019-02-22T11:42:18.201Z,72.90
2019-02-22T11:44:45.742Z,72.40
2019-02-22T11:47:14.450Z,71.90
2019-02-22T11:49:41.492Z,71.90
2019-02-22T11:52:08.444Z,71.80
2019-02-22T11:54:35.390Z,71.40
2019-02-22T11:57:02.460Z,70.90
2019-02-22T11:59:29.485Z,70.90
2019-02-22T12:01:56.632Z,70.90
2019-02-22T12:04:23.807Z,70.90
2019-02-22T12:06:50.800Z,68.90
2019-02-22T12:09:17.776Z,68.60
2019-02-22T12:11:44.806Z,69.20
2019-02-22T12:14:11.926Z,69.20
2019-02-22T12:16:38.917Z,69.00
2019-02-22T12:19:05.885Z,69.50
2019-02-22T12:21:32.865Z,70.10
2019-02-22T12:23:59.871Z,70.30
2019-02-22T12:26:26.813Z,69.80
2019-02-22T12:28:53.797Z,69.40
2019-02-22T12:31:20.695Z,69.40
2019-02-22T12:33:48.192Z,67.60
2019-02-22T12:36:15.318Z,67.30
2019-02-22T12:38:43.246Z,67.20
2019-02-22T12:41:10.178Z,66.80
2019-02-22T12:43:37.296Z,67.00
2019-02-22T12:46:04.408Z,67.30
2019-02-22T12:48:31.441Z,66.90
2019-02-22T12:50:58.468Z,66.30
2019-02-22T12:53:25.412Z,66.20
2019-02-22T12:55:52.499Z,66.00
2019-02-22T12:58:19.548Z,66.30
2019-02-22T13:00:46.556Z,66.60
2019-02-22T13:03:13.585Z,66.80
2019-02-22T13:05:40.582Z,67.00
2019-02-22T13:08:07.778Z,66.70
2019-02-22T13:10:35.111Z,65.70
2019-02-22T13:13:02.487Z,65.30
2019-02-22T13:15:29.756Z,65.60
2019-02-22T13:17:57.114Z,65.80
2019-02-22T13:20:24.116Z,69.00
2019-02-22T13:22:50.993Z,70.60
2019-02-22T13:25:18.511Z,70.70
2019-02-22T13:27:45.948Z,71.00
2019-02-22T13:30:13.161Z,71.60
2019-02-22T13:32:40.164Z,72.00
2019-02-22T13:35:07.594Z,72.40
2019-02-22T13:37:34.989Z,72.70
2019-02-22T13:40:02.070Z,72.90
2019-02-22T13:42:29.248Z,73.40
2019-02-22T13:44:56.350Z,73.50
2019-02-22T13:47:23.282Z,72.20
2019-02-22T13:49:50.365Z,71.70
2019-02-22T13:52:17.247Z,70.50
2019-02-22T13:54:44.484Z,70.70
2019-02-22T13:57:11.920Z,70.20
2019-02-22T13:59:38.936Z,70.10
2019-02-22T14:02:05.829Z,70.30
2019-02-22T14:04:32.821Z,70.10
2019-02-22T14:06:59.867Z,70.20
2019-02-22T14:09:26.874Z,69.60
2019-02-22T14:11:56.003Z,69.30
2019-02-22T14:14:22.989Z,69.20
2019-02-22T14:16:49.995Z,69.70
2019-02-22T14:19:16.941Z,69.70
2019-02-22T14:21:43.910Z,69.60
2019-02-22T14:24:11.052Z,69.70
2019-02-22T14:26:38.623Z,68.60
2019-02-22T14:29:05.782Z,68.90
2019-02-22T14:31:33.142Z,68.80
2019-02-22T14:34:00.355Z,68.10
2019-02-22T14:36:29.124Z,67.40
2019-02-22T14:38:56.259Z,67.40
2019-02-22T14:41:23.693Z,67.20
2019-02-22T14:43:50.595Z,67.50
2019-02-22T14:46:25.621Z,67.10
2019-02-22T14:48:46.483Z,67.20
2019-02-22T14:51:15.198Z,67.40
2019-02-22T14:53:42.319Z,67.50
2019-02-22T14:56:09.484Z,67.30
2019-02-22T14:58:36.609Z,67.30
2019-02-22T15:01:04.119Z,67.20
2019-02-22T15:03:31.110Z,67.00
2019-02-22T15:05:58.076Z,66.90
2019-02-22T15:08:25.051Z,67.10
2019-02-22T15:10:52.100Z,67.40
2019-02-22T15:13:19.278Z,67.50
2019-02-22T15:15:48.239Z,67.80
2019-02-22T15:18:15.391Z,67.90
2019-02-22T15:20:42.698Z,68.10
2019-02-22T15:23:09.725Z,67.90
2019-02-22T15:25:36.737Z,67.60
2019-02-22T15:28:03.694Z,67.50
2019-02-22T15:30:30.824Z,67.10
2019-02-22T15:32:57.832Z,67.60
2019-02-22T15:35:24.862Z,67.60
2019-02-22T15:37:51.921Z,68.00
2019-02-22T15:40:18.998Z,68.10
2019-02-22T15:42:46.008Z,68.30
2019-02-22T15:45:13.312Z,68.10
2019-02-22T15:47:40.408Z,68.40
2019-02-22T15:50:09.693Z,68.50
2019-02-22T15:52:36.696Z,68.70
2019-02-22T15:55:03.816Z,68.90
2019-02-22T15:57:30.941Z,69.60
2019-02-22T15:59:57.944Z,69.40
2019-02-22T16:02:24.935Z,69.40
2019-02-22T16:04:53.877Z,69.30
2019-02-22T16:07:20.936Z,69.40
2019-02-22T16:09:48.110Z,69.80
2019-02-22T16:12:15.189Z,70.20
2019-02-22T16:14:42.395Z,70.50
2019-02-22T16:17:09.455Z,70.70
2019-02-22T16:19:36.615Z,70.90
2019-02-22T16:22:03.752Z,71.20
2019-02-22T16:24:30.845Z,71.50
2019-02-22T16:27:03.715Z,71.60
2019-02-22T16:29:34.649Z,72.60
2019-02-22T16:32:02.247Z,71.90
2019-02-22T16:34:29.395Z,72.00
2019-02-22T16:36:56.347Z,72.50
2019-02-22T16:39:23.287Z,71.70
2019-02-22T16:41:50.419Z,71.70
2019-02-22T16:44:17.562Z,70.80
2019-02-22T16:46:44.635Z,70.50
2019-02-22T16:49:11.785Z,70.50
2019-02-22T16:51:38.809Z,70.90
2019-02-22T16:54:05.914Z,71.00
2019-02-22T16:56:32.890Z,71.30
2019-02-22T16:58:59.974Z,71.90
2019-02-22T17:01:27.001Z,72.40
2019-02-22T17:03:54.061Z,72.60
2019-02-22T17:06:21.151Z,72.80
2019-02-22T17:08:48.264Z,73.10
2019-02-22T17:11:15.543Z,74.10
2019-02-22T17:13:42.710Z,73.60
2019-02-22T17:16:09.753Z,73.70
2019-02-22T17:18:37.004Z,73.90
2019-02-22T17:21:04.134Z,74.20
2019-02-22T17:23:31.120Z,74.50
2019-02-22T17:25:59.538Z,74.90
2019-02-22T17:28:26.503Z,75.20
2019-02-22T17:30:53.757Z,75.50
2019-02-22T17:33:20.921Z,77.10
2019-02-22T17:35:47.989Z,76.60
2019-02-22T17:38:15.086Z,76.90
2019-02-22T17:40:42.194Z,77.40
2019-02-22T17:43:09.427Z,78.00
2019-02-22T17:45:36.646Z,78.10
2019-02-22T17:48:03.717Z,77.90
2019-02-22T17:50:30.803Z,77.90
2019-02-22T17:52:57.948Z,77.80
2019-02-22T17:55:25.132Z,77.80
2019-02-22T17:57:52.270Z,78.20
2019-02-22T18:00:21.176Z,77.90
2019-02-22T18:02:48.253Z,78.20
2019-02-22T18:05:15.282Z,78.50
2019-02-22T18:07:42.447Z,78.20
2019-02-22T18:10:09.600Z,78.60
2019-02-22T18:12:36.715Z,78.90
2019-02-22T18:15:04.353Z,79.30
2019-02-22T18:17:32.499Z,79.80
2019-02-22T18:20:00.039Z,80.20
2019-02-22T18:22:27.470Z,82.20
2019-02-22T18:24:54.938Z,82.00
2019-02-22T18:27:22.521Z,83.00
2019-02-22T18:29:50.162Z,83.20
2019-02-22T18:32:17.833Z,83.80
2019-02-22T18:34:45.009Z,83.90
2019-02-22T18:37:12.463Z,84.10
2019-02-22T18:39:49.129Z,84.50
2019-02-22T18:42:16.303Z,85.90
2019-02-22T18:44:46.528Z,86.10
2019-02-22T18:47:19.339Z,85.90
2019-02-22T18:49:43.411Z,86.40
2019-02-22T18:52:10.546Z,86.30
2019-02-22T18:54:37.631Z,86.30
2019-02-22T18:57:04.633Z,87.00
2019-02-22T18:59:31.832Z,87.20
2019-02-22T19:02:00.098Z,87.50
2019-02-22T19:04:27.259Z,87.30
2019-02-22T19:06:54.470Z,88.00
2019-02-22T19:09:21.756Z,88.00
2019-02-22T19:11:49.527Z,88.40
2019-02-22T19:14:16.772Z,87.60
2019-02-22T19:16:44.042Z,88.10
2019-02-22T19:19:11.030Z,87.90
2019-02-22T19:21:38.708Z,88.70
2019-02-22T19:24:07.320Z,88.00
2019-02-22T19:26:35.147Z,88.00
2019-02-22T19:29:04.335Z,88.40
2019-02-22T19:31:31.543Z,88.60
2019-02-22T19:33:59.008Z,88.40
2019-02-22T19:36:26.612Z,88.90
2019-02-22T19:38:54.058Z,88.30
2019-02-22T19:41:21.588Z,88.50
2019-02-22T19:43:48.853Z,88.10
2019-02-22T19:46:15.994Z,88.50
2019-02-22T19:48:43.217Z,87.10
2019-02-22T19:51:10.277Z,88.20
2019-02-22T19:53:38.269Z,88.70
2019-02-22T19:56:05.590Z,88.50
2019-02-22T19:58:33.468Z,89.10
2019-02-22T20:01:00.846Z,89.00
2019-02-22T20:03:35.145Z,89.40
2019-02-22T20:06:02.601Z,89.70
2019-02-22T20:08:30.135Z,89.10
2019-02-22T20:11:00.439Z,89.40
2019-02-22T20:13:27.591Z,89.60
2019-02-22T20:15:54.643Z,90.30
2019-02-22T20:18:22.633Z,90.70
2019-02-22T20:20:49.988Z,90.30
2019-02-22T20:23:16.983Z,90.60
2019-02-22T20:25:44.596Z,90.70
2019-02-22T20:28:11.920Z,90.80
2019-02-22T20:30:41.131Z,91.40
2019-02-22T20:33:08.143Z,91.30
2019-02-22T20:35:35.120Z,91.40
2019-02-22T20:38:02.297Z,91.20
2019-02-22T20:40:29.549Z,90.90
2019-02-22T20:42:56.639Z,90.60
2019-02-22T20:45:23.812Z,90.40
2019-02-22T20:47:50.810Z,90.60
2019-02-22T20:50:17.821Z,91.00
2019-02-22T20:52:44.867Z,90.40
2019-02-22T20:55:12.097Z,90.40
2019-02-22T20:57:39.154Z,90.40
2019-02-22T21:00:09.075Z,90.30
2019-02-22T21:02:36.162Z,90.10
2019-02-22T21:05:03.223Z,90.60
2019-02-22T21:07:30.326Z,91.60
2019-02-22T21:09:57.762Z,91.60
2019-02-22T21:12:24.854Z,91.60
2019-02-22T21:14:51.801Z,91.30
2019-02-22T21:17:18.709Z,91.60
2019-02-22T21:19:45.653Z,91.60
2019-02-22T21:22:12.982Z,91.60
2019-02-22T21:24:40.646Z,91.50
2019-02-22T21:27:07.782Z,91.50
2019-02-22T21:29:35.243Z,92.10
2019-02-22T21:32:02.347Z,92.10
2019-02-22T21:34:29.585Z,92.30
2019-02-22T21:36:56.797Z,92.50
2019-02-22T21:39:24.290Z,92.90
2019-02-22T21:41:51.457Z,92.70
2019-02-22T21:44:18.632Z,92.30
2019-02-22T21:46:45.675Z,92.20
2019-02-22T21:49:12.853Z,92.40
2019-02-22T21:51:42.621Z,92.40
2019-02-22T21:54:09.616Z,92.20
2019-02-22T21:56:36.606Z,91.40
2019-02-22T21:59:03.796Z,91.90
2019-02-22T22:01:31.008Z,92.30
2019-02-22T22:03:58.021Z,92.00
2019-02-22T22:06:25.097Z,91.80
2019-02-22T22:08:52.111Z,91.80
2019-02-22T22:11:19.247Z,92.20
2019-02-22T22:13:46.240Z,92.00
2019-02-22T22:16:13.524Z,91.80
2019-02-22T22:18:40.696Z,92.00
2019-02-22T22:21:07.669Z,92.60
2019-02-22T22:23:34.974Z,91.90
2019-02-22T22:26:01.920Z,91.70
2019-02-22T22:28:28.974Z,91.50
2019-02-22T22:30:56.237Z,91.60
2019-02-22T22:33:23.294Z,91.30
2019-02-22T22:35:50.445Z,92.60
2019-02-22T22:38:17.459Z,92.60
2019-02-22T22:40:44.478Z,92.60
2019-02-22T22:43:11.822Z,92.90
2019-02-22T22:45:39.063Z,93.00
2019-02-22T22:48:05.983Z,93.20
2019-02-22T22:50:33.011Z,94.70
2019-02-22T22:53:00.275Z,94.30
2019-02-22T22:55:27.706Z,93.80
2019-02-22T22:57:54.754Z,93.10
2019-02-22T23:00:52.357Z,95.30
2019-02-22T23:03:19.603Z,95.40
2019-02-22T23:05:46.903Z,94.60
2019-02-22T23:08:13.938Z,93.70
2019-02-22T23:10:40.879Z,95.60
2019-02-22T23:13:07.929Z,95.50
2019-02-22T23:15:34.940Z,94.60
2019-02-22T23:18:01.870Z,94.30
2019-02-22T23:20:29.267Z,94.60
2019-02-22T23:22:56.208Z,93.80
2019-02-22T23:25:23.270Z,94.60
2019-02-22T23:27:50.160Z,95.40
2019-02-22T23:30:17.077Z,95.40
2019-02-22T23:32:44.206Z,95.40
2019-02-22T23:35:11.633Z,95.50
2019-02-22T23:37:38.824Z,95.30
2019-02-22T23:40:05.870Z,95.40
2019-02-22T23:42:32.811Z,95.20
2019-02-22T23:44:59.784Z,95.20
2019-02-22T23:47:26.785Z,95.50
2019-02-22T23:49:53.926Z,95.50
2019-02-22T23:52:20.944Z,95.50
2019-02-22T23:54:47.850Z,94.90
2019-02-22T23:57:14.812Z,93.90
2019-02-22T23:59:41.879Z,94.80
